Etusivu
METAR-TAF:

METAR-TAF

Lentoasemat :

Pittsburgh / West Mifflin, Pennsylvania, Yhdysvallat

Leveyspiiri: 40-21-17N, Pituuspiiri: 079-55-18W, korkeus merenpinnasta: 382 m

Tämänhetkinen sää

Tämä raportti tehtiin 29 minuuttia sitten, kello 06.53 UTC
Tuuli 5 kn luoteesta
Lämpötila 3°C
Kosteus 60%
Ilmanpaine 1016 hPa
selkeää

METAR: KAGC 020653Z 31005KT CLR 03/M04 A2999 RMK AO2 SLP166 T00281039 $

Aika: 03:22 (07:22 UTC)

Sääennuste

Tämä raportti tehtiin 2 tuntia ja 2 minuuttia sitten, kello 05.20 UTC
Ennuste voimassa 02. päivästä klo 06 UTC - 03. päivään klo 06 UTC
Tuuli 6 kn luoteesta
Näkyvyys: 10 km
selkeää
From 02. päivästä klo 1500 UTC
Tuuli 12 kn pohjoisen/luoteesta puuskistuen 22 kn:hen
Näkyvyys: 10 km
Hajanaisia pilviä 4000 ft:n korkeudessa
From 03. päivästä klo 0100 UTC
Tuuli 6 kn luoteesta
Näkyvyys: 10 km
selkeää

TAF: KAGC 020520Z 0206/0306 32006KT P6SM SKC FM021500 34012G22KT P6SM SCT040 FM030100 32006KT P6SM SKC

Säähavainnot ja -ennusteet yli 4000 lentoasemalta (METAR- ja TAF-raportit).

Käytössä olevat sääasemat on merkitty karttaan keltaisilla ja punaisilla pisteillä.

Aseta hiiri pisteen päälle nähdäksesi sääaseman nimen.

Klikkaa sitten nähdäksesi säähavainnot ja -ennusteet.

Kartan vaihtaminen: klikkaa mustalla rastilla varustettuja vihreitä pisteitä, niin voit zoomata sisään; viivalla varustettua vihreää pistettä, niin voit zoomata ulos tai vihreitä nuolia, niin pääset viereisille kartoille.


METAR-TAF: